Time;durP1;ratioP1;P1;durP2;ratioP2;P2;SDS_P1;SDS_P2;PMS_P1;PMS_P2;Temp;Humidity;BMP_temperature;BMP_pressure;BME280_temperature;BME280_humidity;BME280_pressure;Samples;Min_cycle;Max_cycle;Signal;HPM_P1;HPM_P2
2022/01/08 00:01:28;;;;;;;3.88;1.65;;;4.80;62.50;;;;;;5018342;28;20235;-77
2022/01/08 00:03:55;;;;;;;1.92;1.38;;;4.90;63.20;;;;;;5021937;28;20702;-79
2022/01/08 00:06:24;;;;;;;1.88;1.35;;;4.90;62.60;;;;;;5019673;28;20242;-80
2022/01/08 00:08:51;;;;;;;1.00;0.90;;;4.90;62.80;;;;;;5022235;28;20224;-80
2022/01/08 00:11:25;;;;;;;2.85;1.63;;;4.90;63.00;;;;;;5017650;28;20303;-79
2022/01/08 00:13:52;;;;;;;3.53;1.10;;;4.90;63.20;;;;;;5015104;28;20231;-78
2022/01/08 00:16:19;;;;;;;3.20;1.42;;;4.90;63.50;;;;;;5016152;28;20648;-78
2022/01/08 00:18:47;;;;;;;3.15;1.40;;;4.80;63.40;;;;;;5015917;28;20204;-77
2022/01/08 00:21:14;;;;;;;1.40;1.30;;;4.80;63.40;;;;;;5014021;28;20243;-78
2022/01/08 00:23:41;;;;;;;4.85;1.75;;;4.80;63.10;;;;;;5014978;28;20245;-78
2022/01/08 00:26:08;;;;;;;2.47;1.27;;;4.70;63.30;;;;;;5018064;28;20668;-79
2022/01/08 00:28:35;;;;;;;1.63;1.23;;;4.70;62.80;;;;;;5018041;28;20234;-78
2022/01/08 00:31:03;;;;;;;2.60;1.40;;;4.70;62.70;;;;;;5018110;28;20710;-78
2022/01/08 00:33:30;;;;;;;4.20;1.70;;;4.70;62.80;;;;;;5018743;28;20222;-81
2022/01/08 00:35:58;;;;;;;2.50;1.13;;;4.70;62.90;;;;;;5018772;28;20196;-79
2022/01/08 00:38:25;;;;;;;1.38;1.27;;;4.70;63.00;;;;;;5018871;28;20203;-78
2022/01/08 00:40:52;;;;;;;2.75;1.77;;;4.70;63.70;;;;;;5019358;28;20233;-79
2022/01/08 00:43:19;;;;;;;1.90;1.58;;;4.70;63.80;;;;;;5023362;28;20296;-80
2022/01/08 00:45:46;;;;;;;2.08;1.30;;;4.70;63.70;;;;;;5021423;28;20212;-78
2022/01/08 00:48:13;;;;;;;1.98;1.23;;;4.70;64.00;;;;;;5018765;28;20219;-78
2022/01/08 00:50:40;;;;;;;1.02;0.93;;;4.70;63.90;;;;;;5018121;28;20310;-79
2022/01/08 00:53:08;;;;;;;1.77;1.50;;;4.70;62.80;;;;;;5017667;28;20206;-78
2022/01/08 00:55:35;;;;;;;1.65;1.38;;;4.70;63.20;;;;;;5017866;28;20278;-78
2022/01/08 00:58:02;;;;;;;3.78;1.10;;;4.80;62.80;;;;;;5019211;28;20265;-81
2022/01/08 01:00:29;;;;;;;1.67;1.10;;;4.80;62.60;;;;;;5021931;28;20262;-79
2022/01/08 01:02:55;;;;;;;1.20;1.10;;;4.90;62.50;;;;;;5019194;28;20220;-77
2022/01/08 01:05:22;;;;;;;1.40;1.10;;;4.90;62.50;;;;;;5018665;28;20225;-80
2022/01/08 01:07:49;;;;;;;1.48;0.90;;;5.00;62.60;;;;;;5018582;28;20212;-78
2022/01/08 01:10:18;;;;;;;2.00;1.08;;;5.00;62.70;;;;;;5017542;28;20231;-79
2022/01/08 01:12:45;;;;;;;2.58;1.25;;;5.00;62.80;;;;;;5017711;28;20220;-81
2022/01/08 01:15:14;;;;;;;1.25;1.08;;;5.10;62.60;;;;;;5017969;28;20210;-80
2022/01/08 01:17:41;;;;;;;3.55;1.42;;;5.10;62.80;;;;;;5017374;28;20287;-79
2022/01/08 01:20:10;;;;;;;4.80;1.30;;;5.20;63.30;;;;;;5029473;28;20258;-80
2022/01/08 01:22:46;;;;;;;1.92;1.20;;;5.10;64.40;;;;;;5025488;28;20231;-81
2022/01/08 01:25:21;;;;;;;1.65;0.90;;;5.10;64.40;;;;;;5017833;28;20741;-77
2022/01/08 01:27:58;;;;;;;2.08;1.30;;;5.10;64.40;;;;;;5017344;28;20231;-78
2022/01/08 01:30:49;;;;;;;5.38;1.10;;;5.10;64.40;;;;;;4999506;28;20592;-79
2022/01/08 01:41:55;;;;;;;3.55;1.67;;;5.10;64.40;;;;;;5028639;28;20215;-78
2022/01/08 01:47:10;;;;;;;1.85;1.00;;;5.20;64.50;;;;;;5016503;28;20203;-78
2022/01/08 01:49:38;;;;;;;2.63;1.25;;;5.20;65.20;;;;;;5026932;28;20226;-78
2022/01/08 01:52:08;;;;;;;2.35;0.90;;;5.20;65.90;;;;;;5018156;28;20269;-78
2022/01/08 01:54:36;;;;;;;1.67;0.90;;;5.10;66.60;;;;;;5016539;28;20551;-77
2022/01/08 01:57:04;;;;;;;1.85;1.10;;;5.10;67.90;;;;;;5016451;28;20204;-78
2022/01/08 01:59:34;;;;;;;2.25;0.90;;;5.10;68.80;;;;;;5017337;28;20255;-78
2022/01/08 02:02:01;;;;;;;4.88;1.15;;;5.10;69.90;;;;;;5020203;28;20608;-78
2022/01/08 02:04:29;;;;;;;5.22;1.30;;;5.00;70.60;;;;;;5023120;28;20306;-79
2022/01/08 02:06:55;;;;;;;4.57;1.13;;;5.00;72.80;;;;;;5020646;28;20660;-77
2022/01/08 02:09:22;;;;;;;3.40;1.05;;;5.10;73.10;;;;;;5021491;28;20212;-79
2022/01/08 02:11:56;;;;;;;1.45;0.80;;;5.00;73.00;;;;;;5020330;28;20239;-77
2022/01/08 02:14:23;;;;;;;1.75;0.90;;;5.00;74.00;;;;;;5021368;28;20238;-78
2022/01/08 02:16:51;;;;;;;1.00;1.00;;;5.00;75.40;;;;;;5021669;28;20298;-78
2022/01/08 02:19:18;;;;;;;1.83;1.15;;;5.00;75.60;;;;;;5022888;28;20235;-79
2022/01/08 02:21:52;;;;;;;2.80;1.20;;;5.00;76.10;;;;;;5023110;28;20240;-79
2022/01/08 02:24:21;;;;;;;2.28;1.05;;;5.00;76.50;;;;;;5022439;28;20228;-78
2022/01/08 02:26:48;;;;;;;1.95;1.15;;;5.00;77.80;;;;;;5022346;28;20211;-80
2022/01/08 02:29:16;;;;;;;1.75;1.40;;;4.90;79.00;;;;;;5019707;28;20232;-77
2022/01/08 02:31:53;;;;;;;2.92;1.10;;;4.80;81.20;;;;;;5023465;28;20239;-77
2022/01/08 02:34:20;;;;;;;3.25;1.40;;;4.70;82.60;;;;;;5025205;28;20231;-78
2022/01/08 02:36:47;;;;;;;5.05;1.48;;;4.70;85.30;;;;;;5031013;28;20235;-77
2022/01/08 02:39:16;;;;;;;0.93;0.93;;;4.70;86.40;;;;;;5036574;28;20198;-78
2022/01/08 02:41:46;;;;;;;1.85;1.17;;;4.60;88.60;;;;;;5037929;28;20198;-78
2022/01/08 02:44:13;;;;;;;1.17;0.70;;;4.50;89.30;;;;;;5035220;28;20238;-77
2022/01/08 02:46:43;;;;;;;4.68;1.55;;;4.40;90.90;;;;;;5035363;28;20263;-77
2022/01/08 02:49:10;;;;;;;2.83;0.90;;;4.40;91.40;;;;;;5035464;28;20232;-77
2022/01/08 02:51:37;;;;;;;2.38;0.65;;;4.40;92.20;;;;;;5036732;28;20204;-77
2022/01/08 02:54:08;;;;;;;1.23;0.73;;;4.40;93.10;;;;;;5036756;28;20219;-78
2022/01/08 02:56:39;;;;;;;3.05;1.60;;;4.30;93.60;;;;;;5035530;28;20207;-78
2022/01/08 02:59:07;;;;;;;0.68;0.68;;;4.20;94.30;;;;;;5034693;28;20204;-78
2022/01/08 03:01:34;;;;;;;1.17;0.60;;;4.20;94.90;;;;;;5034415;28;20187;-78
2022/01/08 03:04:01;;;;;;;1.85;0.63;;;4.20;94.90;;;;;;5035645;28;20228;-76
2022/01/08 03:06:28;;;;;;;0.50;0.50;;;4.20;94.90;;;;;;5034610;28;20255;-76
2022/01/08 03:08:55;;;;;;;1.00;0.70;;;4.20;95.30;;;;;;5035814;28;20250;-79
2022/01/08 03:11:22;;;;;;;1.05;0.60;;;4.20;95.60;;;;;;5036463;28;20211;-77
2022/01/08 03:13:54;;;;;;;0.60;0.60;;;4.10;95.10;;;;;;5037237;28;20192;-78
2022/01/08 03:16:23;;;;;;;0.60;0.60;;;4.10;95.10;;;;;;5036330;28;20207;-77
2022/01/08 03:18:51;;;;;;;0.60;0.60;;;4.10;95.60;;;;;;5032533;28;20204;-77
2022/01/08 03:21:21;;;;;;;0.75;0.60;;;4.10;96.10;;;;;;5029500;28;20228;-78
2022/01/08 03:23:53;;;;;;;1.63;0.65;;;4.10;96.30;;;;;;5031341;28;20251;-81
2022/01/08 03:26:23;;;;;;;2.30;0.73;;;4.00;96.60;;;;;;5032655;28;20263;-81
2022/01/08 03:28:50;;;;;;;0.73;0.73;;;4.10;96.60;;;;;;5031987;28;20203;-83
2022/01/08 03:31:19;;;;;;;1.30;0.88;;;4.00;97.00;;;;;;5027606;28;20227;-79
2022/01/08 03:33:46;;;;;;;1.15;1.15;;;4.10;97.40;;;;;;5028693;28;20256;-78
2022/01/08 03:36:19;;;;;;;1.35;0.90;;;4.10;97.60;;;;;;5030010;28;20270;-80
2022/01/08 03:38:46;;;;;;;0.80;0.73;;;4.00;97.40;;;;;;5030859;28;20196;-80
2022/01/08 03:41:13;;;;;;;0.68;0.68;;;4.10;97.30;;;;;;5029264;28;20224;-79
2022/01/08 03:43:40;;;;;;;1.20;0.90;;;4.00;97.60;;;;;;5022866;28;20243;-78
2022/01/08 03:46:07;;;;;;;2.15;1.08;;;4.00;98.00;;;;;;5024046;28;20208;-77
2022/01/08 03:48:46;;;;;;;0.80;0.80;;;4.00;98.30;;;;;;5031163;28;20292;-81
2022/01/08 03:51:14;;;;;;;1.00;0.90;;;4.00;98.40;;;;;;5032153;28;20242;-79
2022/01/08 03:53:41;;;;;;;1.55;1.30;;;4.00;98.80;;;;;;5035108;28;20203;-82
2022/01/08 03:56:08;;;;;;;1.30;0.85;;;4.00;98.90;;;;;;5035562;28;20203;-82
2022/01/08 03:58:35;;;;;;;1.30;0.90;;;4.00;98.60;;;;;;5031417;28;20208;-80
2022/01/08 04:01:02;;;;;;;1.10;1.00;;;3.90;98.00;;;;;;5031513;28;20238;-81
2022/01/08 04:03:29;;;;;;;1.33;1.13;;;3.80;98.10;;;;;;5031167;28;20288;-81
2022/01/08 04:05:57;;;;;;;0.63;0.63;;;3.70;98.20;;;;;;5031197;28;20698;-79
2022/01/08 04:08:24;;;;;;;3.90;2.10;;;3.60;98.20;;;;;;5029700;28;20227;-79
2022/01/08 04:10:51;;;;;;;1.20;1.10;;;3.60;98.60;;;;;;5028432;28;20285;-79
2022/01/08 04:13:22;;;;;;;0.95;0.93;;;3.50;98.90;;;;;;5020808;28;20687;-79
2022/01/08 04:15:52;;;;;;;1.73;0.88;;;3.50;99.70;;;;;;5030294;28;20215;-80
2022/01/08 04:18:19;;;;;;;3.75;1.35;;;3.50;99.80;;;;;;5011380;28;20192;-81
2022/01/08 04:21:07;;;;;;;1.27;1.17;;;3.40;99.90;;;;;;5008159;28;20827;-80
2022/01/08 04:23:36;;;;;;;2.65;1.70;;;3.40;99.90;;;;;;5005535;28;20239;-80
2022/01/08 04:26:03;;;;;;;1.35;1.25;;;3.40;99.90;;;;;;5011057;28;20263;-78
2022/01/08 04:28:30;;;;;;;1.33;1.15;;;3.40;99.90;;;;;;5021059;28;20298;-80
2022/01/08 04:30:57;;;;;;;1.23;1.20;;;3.40;99.90;;;;;;5026963;28;20691;-78
2022/01/08 04:33:24;;;;;;;1.52;1.40;;;3.40;99.90;;;;;;5027165;28;20279;-79
2022/01/08 04:35:51;;;;;;;1.35;1.25;;;3.40;99.90;;;;;;5024904;28;20231;-80
2022/01/08 04:38:18;;;;;;;1.80;1.50;;;3.50;99.90;;;;;;5019067;28;20214;-78
2022/01/08 04:40:46;;;;;;;1.75;1.60;;;3.40;99.90;;;;;;5017703;28;20243;-80
2022/01/08 04:43:14;;;;;;;1.60;1.50;;;3.50;99.90;;;;;;5027761;28;20848;-81
2022/01/08 04:45:42;;;;;;;2.83;1.20;;;3.50;99.90;;;;;;5027972;28;20208;-78
2022/01/08 04:48:09;;;;;;;2.90;2.00;;;3.60;99.90;;;;;;5026731;28;20214;-78
2022/01/08 04:50:36;;;;;;;2.15;1.95;;;3.60;99.90;;;;;;5024343;28;20684;-80
2022/01/08 04:53:03;;;;;;;1.58;1.48;;;3.60;99.90;;;;;;5025255;28;20231;-79
2022/01/08 04:55:30;;;;;;;1.85;1.73;;;3.60;99.90;;;;;;5027127;28;20204;-79
2022/01/08 04:57:58;;;;;;;3.70;1.80;;;3.60;99.90;;;;;;5025345;28;20580;-80
2022/01/08 05:00:25;;;;;;;5.15;1.70;;;3.60;99.90;;;;;;5027728;28;20299;-81
2022/01/08 05:02:52;;;;;;;1.73;1.63;;;3.70;99.90;;;;;;5021040;28;20215;-78
2022/01/08 05:05:19;;;;;;;2.03;1.48;;;3.70;99.90;;;;;;5014954;28;20250;-82
2022/01/08 05:07:46;;;;;;;1.10;1.10;;;3.70;99.90;;;;;;5023969;28;20212;-80
2022/01/08 05:10:14;;;;;;;2.00;1.30;;;3.70;99.90;;;;;;5026850;28;20224;-79
2022/01/08 05:12:41;;;;;;;1.10;1.00;;;3.70;99.90;;;;;;5028241;28;20250;-80
2022/01/08 05:15:10;;;;;;;1.95;0.95;;;3.60;98.10;;;;;;5032905;28;20187;-84
2022/01/08 05:17:39;;;;;;;1.05;0.80;;;3.50;96.30;;;;;;5038124;28;20242;-79
2022/01/08 05:20:08;;;;;;;0.70;0.60;;;3.50;95.20;;;;;;5052691;23;20227;-80
2022/01/08 05:22:49;;;;;;;0.40;0.40;;;3.50;93.30;;;;;;5033198;28;20219;-79
2022/01/08 05:25:17;;;;;;;1.10;0.50;;;3.50;92.00;;;;;;5035185;28;20291;-78
2022/01/08 05:27:44;;;;;;;0.73;0.55;;;3.40;91.00;;;;;;5032858;28;20212;-78
2022/01/08 05:30:13;;;;;;;0.70;0.57;;;3.40;90.60;;;;;;5035442;28;20258;-78
2022/01/08 05:32:41;;;;;;;1.27;1.00;;;3.40;89.70;;;;;;5034628;28;20208;-79
2022/01/08 05:35:09;;;;;;;0.65;0.50;;;3.40;89.40;;;;;;5035606;28;20262;-77
2022/01/08 05:37:36;;;;;;;0.50;0.50;;;3.40;87.60;;;;;;5036381;28;20223;-79
2022/01/08 05:40:03;;;;;;;0.40;0.40;;;3.40;86.70;;;;;;5035164;28;20212;-79
2022/01/08 05:42:30;;;;;;;0.60;0.43;;;3.40;85.10;;;;;;5035340;28;20212;-79
2022/01/08 05:44:57;;;;;;;0.50;0.40;;;3.30;84.10;;;;;;5034938;28;20323;-79
2022/01/08 05:47:30;;;;;;;0.50;0.40;;;3.30;84.10;;;;;;5036208;28;20208;-81
2022/01/08 05:49:57;;;;;;;0.50;0.45;;;3.30;84.50;;;;;;5031717;28;20232;-81
2022/01/08 05:52:24;;;;;;;0.40;0.40;;;3.40;84.20;;;;;;5031145;28;20207;-80
2022/01/08 05:54:51;;;;;;;0.60;0.40;;;3.30;83.70;;;;;;5035118;28;20207;-80
2022/01/08 05:57:18;;;;;;;0.60;0.60;;;3.30;82.80;;;;;;5035843;28;20282;-78
2022/01/08 05:59:45;;;;;;;0.40;0.40;;;3.30;81.10;;;;;;5035865;28;20251;-81
2022/01/08 06:02:12;;;;;;;0.63;0.63;;;3.30;80.60;;;;;;5035618;28;20227;-80
2022/01/08 06:04:40;;;;;;;0.90;0.88;;;3.20;80.60;;;;;;5035739;28;20222;-79
2022/01/08 06:07:07;;;;;;;0.75;0.75;;;3.20;80.70;;;;;;5034706;28;20200;-79
2022/01/08 06:09:34;;;;;;;0.70;0.70;;;3.20;82.10;;;;;;5034122;28;20204;-79
2022/01/08 06:12:01;;;;;;;1.83;0.80;;;3.20;81.90;;;;;;5032850;28;20296;-80
2022/01/08 06:14:28;;;;;;;0.77;0.77;;;3.20;82.60;;;;;;5032652;28;20259;-80
2022/01/08 06:16:55;;;;;;;0.70;0.70;;;3.20;80.90;;;;;;5030911;28;20242;-80
2022/01/08 06:19:22;;;;;;;1.00;0.90;;;3.20;79.90;;;;;;5030714;28;20219;-79
2022/01/08 06:21:51;;;;;;;1.92;0.98;;;3.20;79.90;;;;;;5025533;28;20563;-79
2022/01/08 06:24:18;;;;;;;1.38;1.27;;;3.20;79.40;;;;;;5021655;28;20224;-80
2022/01/08 06:26:45;;;;;;;1.15;0.90;;;3.30;79.10;;;;;;5021229;28;20270;-79
2022/01/08 06:29:12;;;;;;;1.17;1.05;;;3.30;78.90;;;;;;5021299;28;20212;-79
2022/01/08 06:31:39;;;;;;;1.27;1.20;;;3.30;79.00;;;;;;5021545;28;20223;-77
2022/01/08 06:34:06;;;;;;;1.13;0.90;;;3.30;79.20;;;;;;5023110;28;20192;-78
2022/01/08 06:36:33;;;;;;;1.17;1.00;;;3.40;79.30;;;;;;5036457;28;20198;-77
2022/01/08 06:39:01;;;;;;;1.55;1.35;;;3.30;80.00;;;;;;5037068;28;20287;-77
2022/01/08 06:41:29;;;;;;;1.30;1.20;;;3.40;80.00;;;;;;5036621;28;20222;-77
2022/01/08 06:43:57;;;;;;;1.00;1.00;;;3.30;80.00;;;;;;5011673;28;20220;-80
2022/01/08 06:46:24;;;;;;;2.00;0.90;;;3.40;80.70;;;;;;5018534;28;20285;-79
2022/01/08 06:48:51;;;;;;;2.22;1.00;;;3.40;80.50;;;;;;5018795;28;20216;-80
2022/01/08 06:51:18;;;;;;;0.70;0.70;;;3.40;80.20;;;;;;5017923;28;20227;-79
2022/01/08 06:53:45;;;;;;;0.93;0.80;;;3.40;80.80;;;;;;5018525;28;20232;-78
2022/01/08 06:56:13;;;;;;;3.80;1.15;;;3.30;80.10;;;;;;5020156;28;20211;-80
2022/01/08 06:58:41;;;;;;;1.17;1.10;;;3.40;80.10;;;;;;5021091;28;20286;-79
2022/01/08 07:01:08;;;;;;;1.45;1.00;;;3.30;80.00;;;;;;5029189;28;20274;-79
2022/01/08 07:03:35;;;;;;;0.75;0.60;;;3.30;80.00;;;;;;5030290;28;20276;-79
2022/01/08 07:06:02;;;;;;;2.22;1.00;;;3.30;80.00;;;;;;5030983;28;20287;-79
2022/01/08 07:08:29;;;;;;;3.25;1.00;;;3.30;80.00;;;;;;5024499;28;20295;-79
2022/01/08 07:10:56;;;;;;;4.60;0.80;;;3.30;79.90;;;;;;5018489;28;20658;-79
2022/01/08 07:13:24;;;;;;;0.90;0.90;;;3.30;80.00;;;;;;5014742;28;20239;-79
2022/01/08 07:15:51;;;;;;;1.10;1.00;;;3.30;80.00;;;;;;5017032;28;20238;-77
2022/01/08 07:18:18;;;;;;;0.70;0.70;;;3.30;80.00;;;;;;5016102;28;20531;-79
2022/01/08 07:20:44;;;;;;;0.90;0.90;;;3.30;80.00;;;;;;5014587;28;20250;-79
2022/01/08 07:23:11;;;;;;;1.80;1.00;;;3.20;79.90;;;;;;5014889;28;20211;-79
2022/01/08 07:25:38;;;;;;;0.70;0.70;;;3.30;80.00;;;;;;5015178;28;20310;-78
2022/01/08 07:28:06;;;;;;;1.35;0.95;;;3.30;80.00;;;;;;5015826;28;20238;-77
2022/01/08 07:30:34;;;;;;;0.95;0.90;;;3.30;80.00;;;;;;5014810;28;20345;-78
2022/01/08 07:33:01;;;;;;;1.48;1.10;;;3.30;79.90;;;;;;5015882;28;20200;-79
2022/01/08 07:35:28;;;;;;;1.27;1.17;;;3.30;79.70;;;;;;5015781;28;20208;-79
2022/01/08 07:37:54;;;;;;;4.28;1.33;;;3.30;78.60;;;;;;5021782;28;20273;-79
2022/01/08 07:40:23;;;;;;;1.75;1.10;;;3.40;78.70;;;;;;5029719;28;20223;-80
2022/01/08 07:42:50;;;;;;;1.42;1.20;;;3.40;77.90;;;;;;5026265;28;20267;-78
2022/01/08 07:45:18;;;;;;;2.40;1.40;;;3.40;78.10;;;;;;5022009;28;20255;-78
2022/01/08 07:47:47;;;;;;;1.20;1.10;;;3.40;78.40;;;;;;5015940;28;20203;-79
2022/01/08 07:50:14;;;;;;;1.35;1.25;;;3.40;77.70;;;;;;5014315;28;20366;-80
2022/01/08 07:52:42;;;;;;;1.65;1.30;;;3.40;77.50;;;;;;5014262;28;20216;-78
2022/01/08 07:55:10;;;;;;;2.53;1.33;;;3.40;77.60;;;;;;5014688;28;20211;-79
2022/01/08 07:57:37;;;;;;;4.05;1.60;;;3.50;78.30;;;;;;5014515;28;20586;-78
2022/01/08 08:00:06;;;;;;;1.85;1.30;;;3.50;78.90;;;;;;5017275;28;20231;-80
2022/01/08 08:02:33;;;;;;;2.95;1.60;;;3.50;78.60;;;;;;5022724;28;20199;-81
2022/01/08 08:05:01;;;;;;;1.48;1.38;;;3.40;78.50;;;;;;5022579;28;20238;-80
2022/01/08 08:07:29;;;;;;;2.90;1.63;;;3.40;79.20;;;;;;5027249;28;20234;-79
2022/01/08 08:09:56;;;;;;;3.35;2.22;;;3.50;79.80;;;;;;5028596;28;20234;-79
2022/01/08 08:12:24;;;;;;;1.92;1.50;;;3.50;79.50;;;;;;5027170;28;20307;-78
2022/01/08 08:14:51;;;;;;;2.92;1.60;;;3.50;79.60;;;;;;5026513;28;20204;-83
2022/01/08 08:17:18;;;;;;;3.17;1.98;;;3.40;76.90;;;;;;5030855;28;20239;-79
2022/01/08 08:19:45;;;;;;;2.20;2.00;;;3.40;76.70;;;;;;5031550;28;20240;-80
2022/01/08 08:22:13;;;;;;;2.67;2.08;;;3.50;76.70;;;;;;5029965;28;20351;-79
2022/01/08 08:24:40;;;;;;;2.15;1.95;;;3.40;76.10;;;;;;5022007;28;20323;-82
2022/01/08 08:27:08;;;;;;;3.83;2.60;;;3.50;76.00;;;;;;5021826;28;20290;-80
2022/01/08 08:29:35;;;;;;;4.22;2.50;;;3.40;75.90;;;;;;5020061;28;20207;-81
2022/01/08 08:32:02;;;;;;;9.63;2.70;;;3.40;75.90;;;;;;5019579;28;20220;-80
2022/01/08 08:34:29;;;;;;;3.05;2.65;;;3.50;76.10;;;;;;5023753;28;20237;-80
2022/01/08 08:36:56;;;;;;;4.75;2.20;;;3.50;75.40;;;;;;5021722;28;20203;-79
2022/01/08 08:39:25;;;;;;;2.85;2.40;;;3.50;74.90;;;;;;5023079;28;20231;-81
2022/01/08 08:41:52;;;;;;;2.92;2.67;;;3.50;74.90;;;;;;5016803;28;20218;-81
2022/01/08 08:44:19;;;;;;;4.45;2.47;;;3.50;73.80;;;;;;5020364;28;20230;-82
2022/01/08 08:46:46;;;;;;;5.65;2.30;;;3.50;73.20;;;;;;5024980;28;20288;-79
2022/01/08 08:49:13;;;;;;;2.97;2.67;;;3.50;72.80;;;;;;5025384;28;20206;-81
2022/01/08 08:51:40;;;;;;;4.13;2.47;;;3.50;71.70;;;;;;5029446;28;20247;-81
2022/01/08 08:54:07;;;;;;;3.83;2.50;;;3.50;70.70;;;;;;5029120;28;20204;-80
2022/01/08 08:56:35;;;;;;;4.65;2.53;;;3.60;70.20;;;;;;5030352;28;20220;-81
2022/01/08 08:59:02;;;;;;;2.75;2.40;;;3.60;69.70;;;;;;5030092;28;20324;-81
2022/01/08 09:01:29;;;;;;;3.97;3.00;;;3.60;69.00;;;;;;5026396;28;20219;-80
2022/01/08 09:03:56;;;;;;;5.13;2.50;;;3.70;69.70;;;;;;5021942;28;20324;-81
2022/01/08 09:06:26;;;;;;;7.30;3.05;;;3.80;69.50;;;;;;5019533;28;20338;-81
2022/01/08 09:08:53;;;;;;;4.70;2.10;;;3.90;69.40;;;;;;5028557;28;20734;-80
2022/01/08 09:11:20;;;;;;;2.63;2.42;;;3.90;69.10;;;;;;5019946;28;20226;-80
2022/01/08 09:13:51;;;;;;;5.85;2.85;;;4.00;69.10;;;;;;5020361;28;20208;-80
2022/01/08 09:16:18;;;;;;;7.00;3.33;;;4.00;69.50;;;;;;5011662;28;20200;-80
2022/01/08 09:18:45;;;;;;;6.00;2.72;;;4.00;69.40;;;;;;5026016;28;20217;-82
2022/01/08 09:21:13;;;;;;;2.90;2.55;;;4.00;69.30;;;;;;5025260;28;20241;-80
2022/01/08 09:23:40;;;;;;;4.20;2.85;;;4.10;69.50;;;;;;5035523;28;20196;-79
2022/01/08 09:26:08;;;;;;;2.90;2.55;;;4.10;69.10;;;;;;5046962;28;20262;-79
2022/01/08 09:28:35;;;;;;;4.53;2.63;;;4.20;68.60;;;;;;5037034;28;20232;-79
2022/01/08 09:31:03;;;;;;;6.45;2.92;;;4.10;68.20;;;;;;5035464;28;20238;-81
2022/01/08 09:33:31;;;;;;;5.43;2.80;;;4.10;67.90;;;;;;5033691;28;20207;-80
2022/01/08 09:35:59;;;;;;;4.03;2.63;;;4.00;67.80;;;;;;5030315;28;20219;-80
2022/01/08 09:38:26;;;;;;;7.25;2.60;;;4.00;67.80;;;;;;5027426;28;20188;-81
2022/01/08 09:40:53;;;;;;;2.53;2.33;;;4.00;67.90;;;;;;5027775;28;20234;-80
2022/01/08 09:43:21;;;;;;;4.15;2.40;;;4.00;67.00;;;;;;5029222;28;20219;-80
2022/01/08 09:45:48;;;;;;;4.30;2.42;;;4.00;66.70;;;;;;5026020;28;20227;-81
2022/01/08 09:48:17;;;;;;;7.90;2.75;;;4.00;65.80;;;;;;5026091;28;20629;-82
2022/01/08 09:50:45;;;;;;;3.90;2.65;;;4.10;66.30;;;;;;5026804;28;20255;-81
2022/01/08 09:53:13;;;;;;;7.25;2.60;;;4.20;66.00;;;;;;5030026;28;20203;-81
2022/01/08 09:55:40;;;;;;;6.68;2.58;;;4.30;65.40;;;;;;5030075;28;20211;-80
2022/01/08 09:58:07;;;;;;;4.00;2.55;;;4.30;64.70;;;;;;5031248;28;20199;-80
2022/01/08 10:00:38;;;;;;;6.00;2.53;;;4.30;64.70;;;;;;5033378;28;20234;-80
2022/01/08 10:03:19;;;;;;;2.92;2.10;;;4.40;64.30;;;;;;5035735;28;20188;-83
2022/01/08 10:05:47;;;;;;;5.15;2.50;;;4.60;64.00;;;;;;5036366;28;20215;-81
2022/01/08 10:08:15;;;;;;;10.35;3.83;;;4.60;64.00;;;;;;5030330;28;20204;-84
2022/01/08 10:10:54;;;;;;;3.88;2.60;;;4.60;64.00;;;;;;5013802;28;20236;-81
2022/01/08 10:13:24;;;;;;;6.72;2.80;;;4.60;64.00;;;;;;5022786;28;20204;-80
2022/01/08 10:18:39;;;;;;;5.22;2.60;;;4.80;64.10;;;;;;5018945;28;20259;-80
2022/01/08 10:21:18;;;;;;;5.90;2.17;;;4.80;63.10;;;;;;5029117;28;20243;-79
2022/01/08 10:23:47;;;;;;;3.35;2.50;;;4.80;62.60;;;;;;5027845;28;20215;-78
2022/01/08 10:26:17;;;;;;;4.57;2.00;;;4.80;61.70;;;;;;5019621;28;20219;-79
2022/01/08 10:28:45;;;;;;;4.22;2.10;;;4.80;61.20;;;;;;5017104;28;20315;-77
2022/01/08 10:31:16;;;;;;;5.88;2.15;;;4.80;60.00;;;;;;5016659;28;20233;-78
2022/01/08 10:33:48;;;;;;;3.90;2.20;;;4.80;60.40;;;;;;5021740;28;20714;-77
2022/01/08 10:36:20;;;;;;;3.42;2.30;;;4.90;60.60;;;;;;5017324;28;20208;-75
2022/01/08 10:38:51;;;;;;;6.97;2.38;;;4.90;60.70;;;;;;5016170;28;20287;-76
2022/01/08 10:41:18;;;;;;;9.85;3.25;;;4.90;59.90;;;;;;5015494;28;20231;-75
2022/01/08 10:43:46;;;;;;;4.30;1.88;;;4.90;59.80;;;;;;5015633;28;20303;-76
2022/01/08 10:46:15;;;;;;;5.57;2.33;;;4.80;59.70;;;;;;5015828;28;20405;-77
2022/01/08 10:48:50;;;;;;;3.80;2.38;;;4.80;59.70;;;;;;5017468;28;20294;-76
2022/01/08 10:51:20;;;;;;;3.28;2.10;;;4.90;59.80;;;;;;5019041;28;20370;-77
2022/01/08 10:54:03;;;;;;;2.92;2.15;;;5.00;59.90;;;;;;5020335;28;20207;-77
2022/01/08 10:56:32;;;;;;;4.53;2.67;;;5.00;59.90;;;;;;5021197;28;20264;-76
2022/01/08 10:59:14;;;;;;;2.10;1.90;;;5.00;59.90;;;;;;5018969;28;20230;-76
2022/01/08 11:01:54;;;;;;;4.57;2.10;;;5.00;59.90;;;;;;5017252;28;20236;-77
2022/01/08 11:04:35;;;;;;;2.50;2.05;;;5.10;60.10;;;;;;5016173;28;20278;-76
2022/01/08 11:07:03;;;;;;;4.78;2.22;;;5.00;59.90;;;;;;5016295;28;20361;-76
2022/01/08 11:09:31;;;;;;;4.90;2.95;;;4.90;60.20;;;;;;5015304;28;20218;-76
2022/01/08 11:11:59;;;;;;;4.75;2.33;;;4.90;60.60;;;;;;5018153;28;20351;-77
2022/01/08 11:17:24;;;;;;;5.55;2.33;;;4.90;60.50;;;;;;4991122;28;20203;-76
2022/01/08 11:19:54;;;;;;;5.78;2.40;;;4.90;59.90;;;;;;5039543;23;20719;-83
2022/01/08 11:22:32;;;;;;;3.30;2.20;;;4.90;59.80;;;;;;5049201;22;20240;-81
2022/01/08 11:25:01;;;;;;;3.08;2.22;;;4.90;60.20;;;;;;5035811;28;20200;-81
2022/01/08 11:27:35;;;;;;;6.25;2.08;;;4.90;59.80;;;;;;5020613;28;20231;-80
2022/01/08 11:30:09;;;;;;;2.13;1.50;;;4.90;59.10;;;;;;5018950;28;20224;-78
2022/01/08 11:32:37;;;;;;;4.15;1.58;;;4.80;58.90;;;;;;5016350;28;20203;-80
2022/01/08 11:35:09;;;;;;;4.20;1.95;;;4.80;58.40;;;;;;5016997;28;20247;-81
2022/01/08 11:37:37;;;;;;;2.05;1.60;;;4.70;57.90;;;;;;5016557;28;20212;-81
2022/01/08 11:40:08;;;;;;;4.35;1.85;;;4.70;58.70;;;;;;5016090;28;20227;-80
2022/01/08 11:42:38;;;;;;;3.35;1.73;;;4.80;59.70;;;;;;5016673;28;20235;-81
2022/01/08 11:45:08;;;;;;;6.45;2.30;;;4.70;61.20;;;;;;5035660;28;20200;-83
2022/01/08 11:47:36;;;;;;;6.90;2.10;;;4.70;62.00;;;;;;5032209;28;20243;-80
2022/01/08 11:50:07;;;;;;;4.68;2.20;;;4.70;63.00;;;;;;5011782;28;20220;-81
2022/01/08 11:52:36;;;;;;;6.93;2.50;;;4.70;63.30;;;;;;5017193;28;20208;-79
2022/01/08 11:55:04;;;;;;;4.57;1.88;;;4.60;64.00;;;;;;5016034;28;20575;-80
2022/01/08 11:57:32;;;;;;;2.63;1.92;;;4.70;64.10;;;;;;5016664;28;20291;-80
2022/01/08 11:59:59;;;;;;;1.85;1.52;;;4.80;64.10;;;;;;5015670;28;20218;-78
2022/01/08 12:02:41;;;;;;;3.20;1.73;;;5.00;64.00;;;;;;5016766;28;20211;-79
2022/01/08 12:05:12;;;;;;;3.67;2.10;;;5.20;63.00;;;;;;5017470;28;20207;-82
2022/01/08 12:07:43;;;;;;;2.03;1.65;;;5.40;61.80;;;;;;5019970;28;20210;-79
2022/01/08 12:10:19;;;;;;;4.35;2.03;;;5.50;60.50;;;;;;5016418;28;20250;-80
2022/01/08 12:12:57;;;;;;;8.85;2.58;;;5.60;59.90;;;;;;5025314;28;20222;-78
2022/01/08 12:15:47;;;;;;;2.88;2.22;;;5.60;58.50;;;;;;5025632;28;20271;-79
2022/01/08 12:18:16;;;;;;;3.28;2.20;;;5.70;58.10;;;;;;5025891;28;20204;-80
2022/01/08 12:20:46;;;;;;;2.85;2.13;;;5.90;57.40;;;;;;5029200;28;20683;-78
2022/01/08 12:23:35;;;;;;;3.75;2.00;;;5.80;56.80;;;;;;5030962;28;20280;-78
2022/01/08 12:26:05;;;;;;;3.03;1.85;;;5.70;55.90;;;;;;5031498;28;20231;-78
2022/01/08 12:28:53;;;;;;;2.40;1.70;;;5.70;55.90;;;;;;5032383;28;20219;-82
2022/01/08 12:31:40;;;;;;;1.52;1.42;;;5.60;55.80;;;;;;5031315;28;20239;-80
2022/01/08 12:34:24;;;;;;;3.35;1.83;;;5.60;55.80;;;;;;5022547;28;20217;-78
2022/01/08 12:36:54;;;;;;;2.97;1.90;;;5.60;55.80;;;;;;5032195;28;20192;-81
2022/01/08 12:39:48;;;;;;;3.20;1.50;;;5.70;55.90;;;;;;5033265;28;20279;-80
2022/01/08 12:42:41;;;;;;;3.92;1.90;;;5.70;55.20;;;;;;5023790;28;20531;-79
2022/01/08 12:45:12;;;;;;;1.58;1.40;;;6.00;54.50;;;;;;5027219;28;20219;-83
2022/01/08 12:47:45;;;;;;;2.85;1.88;;;6.10;53.40;;;;;;5027715;28;20211;-81
2022/01/08 12:50:30;;;;;;;1.52;1.42;;;6.20;52.20;;;;;;5025871;28;20224;-79
2022/01/08 12:53:21;;;;;;;1.98;1.48;;;6.20;51.70;;;;;;5011574;28;20617;-78
2022/01/08 12:56:11;;;;;;;1.65;1.40;;;6.20;50.60;;;;;;5012804;28;20215;-78
2022/01/08 12:59:05;;;;;;;2.92;1.70;;;6.00;50.70;;;;;;5022865;28;20521;-79
2022/01/08 13:01:32;;;;;;;4.30;1.33;;;5.80;50.60;;;;;;5012170;28;20228;-80
2022/01/08 13:04:00;;;;;;;1.83;1.65;;;5.80;51.10;;;;;;5019717;28;20228;-80
2022/01/08 13:06:29;;;;;;;3.28;1.20;;;5.80;50.80;;;;;;5024610;28;21379;-80
2022/01/08 13:09:00;;;;;;;2.70;1.52;;;5.80;50.70;;;;;;5017401;28;20255;-78
2022/01/08 13:11:29;;;;;;;2.30;1.50;;;5.80;50.00;;;;;;5026973;28;20224;-79
2022/01/08 13:14:00;;;;;;;3.92;1.80;;;5.80;51.00;;;;;;5029786;28;20199;-78
2022/01/08 13:16:29;;;;;;;1.95;1.45;;;5.80;50.00;;;;;;5026076;28;20196;-79
2022/01/08 13:19:06;;;;;;;2.65;1.63;;;5.90;50.00;;;;;;5020328;28;20230;-79
2022/01/08 13:21:39;;;;;;;1.73;1.50;;;5.90;49.70;;;;;;5021222;28;20227;-79
2022/01/08 13:24:14;;;;;;;1.50;1.17;;;5.90;48.60;;;;;;5017167;28;20219;-78
2022/01/08 13:26:43;;;;;;;5.45;1.50;;;6.00;48.90;;;;;;5026749;28;20207;-81